createdAt,value
2017-08-15T00:02:03.652Z,11.53
2017-08-15T00:04:30.859Z,11.33
2017-08-15T00:06:57.951Z,12.40
2017-08-15T00:09:25.246Z,11.07
2017-08-15T00:11:52.209Z,10.87
2017-08-15T00:14:19.198Z,12.13
2017-08-15T00:16:46.246Z,12.47
2017-08-15T00:19:13.502Z,11.40
2017-08-15T00:21:40.428Z,11.97
2017-08-15T00:24:07.337Z,11.20
2017-08-15T00:26:34.685Z,12.90
2017-08-15T00:29:02.541Z,12.10
2017-08-15T00:31:29.466Z,12.63
2017-08-15T00:33:56.375Z,12.07
2017-08-15T00:36:23.281Z,13.07
2017-08-15T00:38:50.232Z,11.30
2017-08-15T00:41:17.099Z,12.23
2017-08-15T00:43:43.997Z,12.20
2017-08-15T00:46:11.006Z,11.63
2017-08-15T00:48:37.998Z,12.10
2017-08-15T00:51:04.892Z,11.70
2017-08-15T00:53:31.870Z,12.63
2017-08-15T00:55:58.729Z,11.57
2017-08-15T00:58:26.081Z,12.00
2017-08-15T01:00:53.126Z,11.60
2017-08-15T01:03:21.000Z,12.50
2017-08-15T01:05:48.463Z,12.57
2017-08-15T01:08:15.356Z,13.33
2017-08-15T01:10:42.249Z,11.97
2017-08-15T01:13:09.262Z,11.70
2017-08-15T01:15:36.262Z,10.87
2017-08-15T01:18:03.294Z,12.47
2017-08-15T01:20:30.244Z,12.23
2017-08-15T01:22:57.209Z,11.50
2017-08-15T01:25:24.125Z,11.60
2017-08-15T01:27:50.997Z,12.83
2017-08-15T01:30:17.954Z,12.50
2017-08-15T01:32:44.895Z,11.80
2017-08-15T01:35:11.833Z,12.10
2017-08-15T01:37:45.107Z,11.63
2017-08-15T01:40:12.063Z,13.00
2017-08-15T01:42:39.637Z,12.33
2017-08-15T01:45:06.584Z,11.63
2017-08-15T01:47:33.597Z,13.27
2017-08-15T01:50:00.472Z,11.33
2017-08-15T01:52:27.501Z,12.80
2017-08-15T01:54:54.392Z,11.77
2017-08-15T01:57:21.315Z,11.40
2017-08-15T01:59:48.249Z,12.53
2017-08-15T02:02:15.169Z,12.70
2017-08-15T02:04:42.119Z,12.10
2017-08-15T02:07:09.521Z,11.47
2017-08-15T02:09:37.336Z,12.63
2017-08-15T02:12:04.255Z,11.60
2017-08-15T02:14:31.230Z,11.67
2017-08-15T02:16:58.187Z,12.47
2017-08-15T02:19:25.095Z,12.67
2017-08-15T02:21:52.099Z,12.30
2017-08-15T02:24:19.821Z,11.80
2017-08-15T02:26:49.874Z,12.57
2017-08-15T02:29:17.393Z,11.30
2017-08-15T02:31:44.335Z,11.67
2017-08-15T02:34:11.306Z,12.90
2017-08-15T02:36:38.352Z,12.07
2017-08-15T02:39:05.259Z,12.00
2017-08-15T02:41:33.390Z,12.10
2017-08-15T02:44:01.064Z,12.70
2017-08-15T02:46:28.496Z,12.70
2017-08-15T02:48:56.328Z,12.70
2017-08-15T02:51:23.416Z,13.70
2017-08-15T02:53:50.317Z,13.57
2017-08-15T02:56:17.356Z,12.40
2017-08-15T02:58:44.340Z,12.93
2017-08-15T03:01:11.342Z,11.80
2017-08-15T03:03:38.180Z,14.83
2017-08-15T03:06:07.603Z,12.50
2017-08-15T03:08:34.837Z,14.20
2017-08-15T03:11:01.704Z,12.17
2017-08-15T03:13:29.653Z,13.03
2017-08-15T03:15:56.859Z,12.57
2017-08-15T03:18:23.855Z,13.27
2017-08-15T03:20:50.985Z,13.10
2017-08-15T03:23:17.938Z,14.00
2017-08-15T03:25:44.828Z,13.20
2017-08-15T03:28:12.568Z,12.77
2017-08-15T03:30:39.564Z,13.93
2017-08-15T03:33:06.575Z,13.30
2017-08-15T03:35:33.999Z,13.93
2017-08-15T03:38:01.874Z,13.37
2017-08-15T03:40:28.724Z,13.13
2017-08-15T03:42:55.652Z,13.67
2017-08-15T03:45:22.561Z,13.80
2017-08-15T03:47:49.485Z,12.80
2017-08-15T03:50:16.419Z,14.37
2017-08-15T03:52:43.931Z,14.03
2017-08-15T03:55:10.792Z,13.10
2017-08-15T03:57:38.632Z,13.97
2017-08-15T04:00:05.504Z,12.70
2017-08-15T04:02:33.052Z,13.40
2017-08-15T04:05:00.612Z,13.60
2017-08-15T04:07:27.493Z,12.67
2017-08-15T04:09:54.405Z,13.50
2017-08-15T04:12:21.264Z,13.47
2017-08-15T04:14:48.845Z,14.77
2017-08-15T04:17:16.212Z,14.30
2017-08-15T04:19:43.183Z,13.80
2017-08-15T04:22:10.107Z,13.50
2017-08-15T04:24:38.082Z,12.60
2017-08-15T04:27:04.990Z,12.53
2017-08-15T04:29:31.870Z,12.37
2017-08-15T04:31:58.746Z,12.43
2017-08-15T04:34:25.676Z,11.43
2017-08-15T04:36:52.638Z,12.80
2017-08-15T04:39:19.488Z,12.20
2017-08-15T04:41:46.413Z,12.73
2017-08-15T04:44:13.330Z,12.53
2017-08-15T04:46:40.683Z,12.67
2017-08-15T04:49:07.634Z,13.13
2017-08-15T04:51:39.257Z,12.27
2017-08-15T04:54:09.578Z,12.63
2017-08-15T05:07:23.220Z,12.63
2017-08-15T05:40:11.179Z,11.30
2017-08-15T05:42:49.908Z,10.63
2017-08-15T05:45:28.096Z,10.60
2017-08-15T05:47:55.285Z,10.23
2017-08-15T05:50:22.266Z,10.90
2017-08-15T05:52:49.474Z,10.27
2017-08-15T05:55:16.424Z,10.03
2017-08-15T05:57:43.314Z,10.97
2017-08-15T06:00:10.723Z,10.10
2017-08-15T06:02:37.664Z,10.77
2017-08-15T06:05:04.534Z,10.03
2017-08-15T06:07:31.505Z,9.67
2017-08-15T06:09:58.540Z,11.30
2017-08-15T06:12:25.542Z,10.37
2017-08-15T06:14:53.687Z,9.77
2017-08-15T06:17:21.494Z,11.47
2017-08-15T06:19:48.625Z,10.70
2017-08-15T06:22:15.692Z,10.80
2017-08-15T06:24:42.702Z,10.40
2017-08-15T06:27:09.558Z,11.70
2017-08-15T06:29:36.561Z,10.73
2017-08-15T06:32:03.480Z,11.30
2017-08-15T06:34:30.359Z,10.13
2017-08-15T06:36:57.331Z,10.23
2017-08-15T06:39:24.301Z,10.23
2017-08-15T06:41:51.190Z,10.03
2017-08-15T06:44:18.650Z,10.13
2017-08-15T06:46:46.154Z,10.43
2017-08-15T06:49:13.219Z,11.57
2017-08-15T06:51:40.182Z,10.70
2017-08-15T06:54:07.053Z,10.40
2017-08-15T06:56:33.989Z,9.77
2017-08-15T06:59:01.014Z,11.00
2017-08-15T07:01:30.191Z,10.13
2017-08-15T07:03:57.031Z,10.00
2017-08-15T07:06:23.895Z,10.80
2017-08-15T07:08:51.264Z,12.17
2017-08-15T07:11:18.036Z,11.40
2017-08-15T07:13:44.876Z,10.63
2017-08-15T07:16:11.666Z,10.50
2017-08-15T07:18:39.110Z,9.53
2017-08-15T07:21:07.138Z,10.90
2017-08-15T07:23:35.224Z,10.10
2017-08-15T07:26:02.051Z,9.97
2017-08-15T07:28:28.953Z,10.40
2017-08-15T07:30:55.807Z,9.93
2017-08-15T07:33:22.703Z,9.67
2017-08-15T07:35:49.540Z,9.20
2017-08-15T07:38:16.886Z,9.90
2017-08-15T07:40:43.780Z,9.60
2017-08-15T07:43:10.634Z,9.40
2017-08-15T07:45:37.584Z,9.60
2017-08-15T07:48:04.377Z,9.33
2017-08-15T07:50:31.194Z,9.40
2017-08-15T07:52:58.043Z,9.50
2017-08-15T07:55:24.834Z,10.00
2017-08-15T07:57:51.719Z,9.37
2017-08-15T08:00:18.539Z,9.93
2017-08-15T08:02:45.313Z,8.90
2017-08-15T08:05:12.155Z,9.37
2017-08-15T08:07:38.953Z,8.97
2017-08-15T08:10:05.754Z,9.77
2017-08-15T08:12:33.180Z,9.07
2017-08-15T08:14:59.984Z,8.93
2017-08-15T08:17:26.801Z,9.03
2017-08-15T08:19:53.682Z,8.83
2017-08-15T08:22:20.605Z,10.50
2017-08-15T08:24:47.890Z,10.80
2017-08-15T08:27:15.887Z,9.20
2017-08-15T08:32:29.483Z,9.47
2017-08-15T08:43:30.858Z,8.30
2017-08-15T08:45:57.775Z,8.30
2017-08-15T08:48:24.668Z,8.47
2017-08-15T08:50:52.114Z,8.50
2017-08-15T08:53:18.953Z,9.00
2017-08-15T08:55:45.825Z,9.13
2017-08-15T08:58:12.636Z,8.90
2017-08-15T09:00:39.457Z,9.37
2017-08-15T09:03:06.302Z,9.00
2017-08-15T09:05:33.073Z,8.70
2017-08-15T09:08:00.905Z,8.77
2017-08-15T09:10:27.701Z,8.47
2017-08-15T09:12:54.547Z,9.30
2017-08-15T09:15:21.969Z,8.40
2017-08-15T09:17:49.152Z,8.80
2017-08-15T09:20:15.949Z,8.60
2017-08-15T09:22:43.152Z,8.90
2017-08-15T09:25:09.936Z,8.67
2017-08-15T09:27:36.740Z,9.47
2017-08-15T09:30:03.601Z,9.10
2017-08-15T09:32:30.432Z,9.83
2017-08-15T09:34:57.203Z,8.87
2017-08-15T09:37:24.038Z,9.37
2017-08-15T09:39:50.836Z,9.60
2017-08-15T09:42:17.645Z,8.60
2017-08-15T09:44:44.565Z,9.20
2017-08-15T09:47:11.431Z,9.13
2017-08-15T09:49:38.202Z,10.47
2017-08-15T09:52:05.964Z,8.70
2017-08-15T09:54:32.777Z,8.67
2017-08-15T09:56:59.556Z,9.77
2017-08-15T09:59:26.402Z,8.67
2017-08-15T10:01:53.258Z,9.10
2017-08-15T10:04:20.128Z,8.93
2017-08-15T10:06:46.977Z,9.20
2017-08-15T10:09:13.870Z,9.40
2017-08-15T10:11:40.769Z,9.17
2017-08-15T10:14:08.039Z,10.17
2017-08-15T10:16:34.873Z,9.37
2017-08-15T10:19:01.712Z,8.57
2017-08-15T10:21:28.578Z,9.10
2017-08-15T10:23:55.448Z,10.60
2017-08-15T10:26:24.158Z,9.23
2017-08-15T10:28:51.061Z,10.50
2017-08-15T10:31:17.867Z,9.13
2017-08-15T10:33:44.743Z,9.10
2017-08-15T10:36:12.684Z,9.17
2017-08-15T10:38:39.524Z,9.30
2017-08-15T10:41:06.393Z,9.90
2017-08-15T10:43:33.322Z,9.43
2017-08-15T10:46:01.215Z,8.77
2017-08-15T10:48:28.346Z,8.97
2017-08-15T10:50:55.241Z,9.83
2017-08-15T10:53:22.935Z,9.33
2017-08-15T10:55:49.778Z,9.87
2017-08-15T10:58:17.657Z,9.90
2017-08-15T11:00:45.503Z,9.47
2017-08-15T11:03:12.354Z,9.97
2017-08-15T11:05:39.186Z,9.90
2017-08-15T11:08:06.370Z,10.63
2017-08-15T11:10:33.200Z,10.50
2017-08-15T11:13:00.156Z,9.97
2017-08-15T11:15:27.020Z,10.70
2017-08-15T11:17:54.151Z,10.00
2017-08-15T11:20:22.264Z,11.53
2017-08-15T11:22:49.095Z,9.97
2017-08-15T11:25:15.942Z,10.63
2017-08-15T11:27:42.830Z,10.97
2017-08-15T11:30:09.739Z,10.47
2017-08-15T11:32:36.610Z,10.30
2017-08-15T11:35:03.494Z,11.30
2017-08-15T11:37:30.365Z,11.50
2017-08-15T11:39:57.758Z,11.20
2017-08-15T11:42:24.632Z,10.90
2017-08-15T11:44:51.497Z,11.37
2017-08-15T11:47:18.328Z,11.70
2017-08-15T11:49:45.187Z,10.40
2017-08-15T11:52:12.055Z,11.70
2017-08-15T11:54:39.823Z,12.20
2017-08-15T11:57:06.808Z,11.27
2017-08-15T11:59:33.719Z,11.57
2017-08-15T12:02:01.472Z,11.13
2017-08-15T12:04:28.597Z,12.00
2017-08-15T12:06:55.494Z,11.03
2017-08-15T12:09:22.649Z,11.23
2017-08-15T12:11:49.651Z,10.67
2017-08-15T12:14:16.570Z,10.40
2017-08-15T12:16:43.488Z,10.63
2017-08-15T12:19:11.426Z,10.97
2017-08-15T12:21:38.265Z,10.57
2017-08-15T12:24:06.127Z,10.10
2017-08-15T12:26:33.971Z,9.43
2017-08-15T12:29:00.849Z,9.93
2017-08-15T12:31:27.744Z,11.27
2017-08-15T12:33:54.696Z,9.63
2017-08-15T12:36:21.588Z,9.60
2017-08-15T12:38:48.438Z,10.17
2017-08-15T12:41:15.337Z,9.60
2017-08-15T12:43:42.195Z,9.80
2017-08-15T12:46:09.049Z,9.63
2017-08-15T12:48:36.191Z,9.47
2017-08-15T12:51:03.054Z,8.30
2017-08-15T12:53:29.879Z,9.47
2017-08-15T12:55:56.844Z,9.83
2017-08-15T12:58:23.634Z,11.33
2017-08-15T13:00:50.564Z,10.70
2017-08-15T13:03:17.400Z,10.20
2017-08-15T13:05:44.195Z,11.57
2017-08-15T13:08:10.989Z,10.70
2017-08-15T13:10:37.832Z,10.90
2017-08-15T13:13:04.994Z,11.83
2017-08-15T13:15:31.851Z,12.33
2017-08-15T13:17:58.829Z,11.63
2017-08-15T13:20:26.446Z,11.70
2017-08-15T13:22:53.391Z,11.97
2017-08-15T13:25:20.907Z,11.60
2017-08-15T13:27:47.792Z,11.07
2017-08-15T13:30:14.679Z,10.60
2017-08-15T13:32:41.700Z,10.33
2017-08-15T13:35:08.756Z,10.13
2017-08-15T13:37:35.724Z,10.33
2017-08-15T13:40:02.686Z,9.70
2017-08-15T13:42:29.764Z,9.77
2017-08-15T13:44:56.604Z,10.50
2017-08-15T13:47:23.541Z,10.23
2017-08-15T13:49:50.545Z,10.70
2017-08-15T13:52:17.447Z,12.10
2017-08-15T13:54:44.334Z,10.90
2017-08-15T13:57:11.238Z,11.40
2017-08-15T13:59:38.125Z,12.50
2017-08-15T14:02:05.177Z,11.07
2017-08-15T14:04:32.066Z,11.30
2017-08-15T14:06:59.052Z,10.37
2017-08-15T14:09:25.963Z,11.90
2017-08-15T14:11:53.003Z,10.97
2017-08-15T14:14:20.048Z,11.37
2017-08-15T14:16:47.012Z,11.97
2017-08-15T14:19:13.997Z,10.90
2017-08-15T14:21:40.985Z,12.40
2017-08-15T14:24:07.902Z,11.80
2017-08-15T14:26:34.816Z,10.87
2017-08-15T14:29:01.758Z,11.17
2017-08-15T14:31:28.705Z,10.90
2017-08-15T14:33:55.649Z,11.20
2017-08-15T14:36:23.193Z,11.20
2017-08-15T14:38:50.370Z,11.90
2017-08-15T14:41:17.279Z,11.20
2017-08-15T14:43:44.261Z,11.90
2017-08-15T14:46:11.264Z,12.00
2017-08-15T14:48:38.205Z,11.87
2017-08-15T14:51:05.184Z,13.07
2017-08-15T14:53:32.110Z,11.70
2017-08-15T14:55:59.146Z,12.13
2017-08-15T14:58:26.118Z,12.73
2017-08-15T15:00:53.178Z,12.23
2017-08-15T15:03:20.225Z,11.20
2017-08-15T15:05:47.147Z,13.30
2017-08-15T15:08:14.155Z,13.30
2017-08-15T15:10:41.147Z,12.33
2017-08-15T15:13:08.847Z,12.90
2017-08-15T15:15:36.189Z,12.90
2017-08-15T15:18:03.236Z,12.80
2017-08-15T15:20:31.090Z,15.03
2017-08-15T15:22:58.129Z,13.63
2017-08-15T15:25:25.121Z,13.80
2017-08-15T15:27:52.116Z,13.57
2017-08-15T15:30:19.092Z,13.63
2017-08-15T15:32:46.210Z,12.67
2017-08-15T15:35:13.154Z,12.63
2017-08-15T15:37:41.295Z,14.40
2017-08-15T15:40:08.275Z,14.10
2017-08-15T15:42:35.186Z,13.60
2017-08-15T15:45:02.992Z,14.40
2017-08-15T15:47:29.887Z,13.90
2017-08-15T15:49:57.721Z,13.60
2017-08-15T15:52:24.772Z,15.13
2017-08-15T15:54:51.635Z,15.43
2017-08-15T15:57:18.597Z,15.40
2017-08-15T15:59:46.362Z,13.80
2017-08-15T16:02:13.396Z,14.17
2017-08-15T16:04:40.984Z,13.90
2017-08-15T16:07:08.166Z,13.90
2017-08-15T16:09:35.288Z,14.93
2017-08-15T16:12:02.822Z,14.97
2017-08-15T16:14:29.930Z,14.73
2017-08-15T16:16:58.147Z,14.37
2017-08-15T16:19:25.352Z,14.10
2017-08-15T16:21:52.701Z,13.20
2017-08-15T16:24:19.779Z,13.53
2017-08-15T16:26:46.808Z,14.03
2017-08-15T16:29:15.341Z,14.03
2017-08-15T16:31:42.528Z,14.50
2017-08-15T16:34:10.769Z,13.87
2017-08-15T16:36:37.968Z,15.07
2017-08-15T16:39:04.997Z,14.00
2017-08-15T16:41:32.029Z,14.60
2017-08-15T16:43:58.996Z,13.73
2017-08-15T16:46:26.134Z,14.10
2017-08-15T16:48:53.152Z,13.90
2017-08-15T16:56:24.585Z,14.40
2017-08-15T16:58:52.488Z,13.77
2017-08-15T17:01:21.626Z,13.50
2017-08-15T19:51:56.480Z,24.90
2017-08-15T19:54:30.020Z,17.60
2017-08-15T19:56:56.996Z,14.80
2017-08-15T19:59:23.910Z,15.67
2017-08-15T20:01:50.918Z,14.63
2017-08-15T20:04:18.211Z,14.83
2017-08-15T20:06:45.201Z,14.53
2017-08-15T20:09:12.175Z,15.07
2017-08-15T20:11:39.159Z,15.20
2017-08-15T20:14:06.014Z,15.30
2017-08-15T20:16:32.906Z,17.60
2017-08-15T20:18:59.922Z,15.80
2017-08-15T20:21:26.841Z,16.50
2017-08-15T20:23:53.884Z,14.53
2017-08-15T20:37:19.485Z,18.60
2017-08-15T20:39:46.450Z,17.97
2017-08-15T20:42:13.355Z,18.60
2017-08-15T20:44:40.296Z,17.33
2017-08-15T20:47:07.212Z,15.23
2017-08-15T20:49:34.114Z,18.03
2017-08-15T20:52:01.079Z,19.90
2017-08-15T20:54:28.058Z,20.37
2017-08-15T20:56:55.147Z,18.40
2017-08-15T20:59:22.664Z,17.03
2017-08-15T21:01:49.612Z,16.93
2017-08-15T21:04:16.519Z,16.33
2017-08-15T21:06:43.907Z,16.60
2017-08-15T21:09:10.805Z,16.30
2017-08-15T21:11:38.107Z,16.10
2017-08-15T21:14:05.039Z,14.47
2017-08-15T21:16:31.940Z,16.20
2017-08-15T21:18:58.876Z,15.00
2017-08-15T21:21:26.191Z,15.40
2017-08-15T21:23:53.133Z,16.03
2017-08-15T21:26:20.142Z,15.80
2017-08-15T21:28:47.071Z,17.47
2017-08-15T21:31:14.083Z,16.87
2017-08-15T21:33:40.983Z,17.20
2017-08-15T21:36:08.014Z,17.60
2017-08-15T21:38:34.927Z,17.50
2017-08-15T21:41:01.901Z,17.17
2017-08-15T21:43:28.912Z,19.00
2017-08-15T21:45:55.746Z,16.10
2017-08-15T21:48:22.650Z,16.47
2017-08-15T21:50:49.626Z,17.47
2017-08-15T21:53:16.626Z,15.30
2017-08-15T21:55:43.559Z,15.70
2017-08-15T21:58:10.456Z,15.50
2017-08-15T22:00:37.415Z,15.60
2017-08-15T22:03:04.438Z,16.00
2017-08-15T22:05:31.708Z,16.93
2017-08-15T22:07:58.638Z,16.73
2017-08-15T22:10:25.529Z,15.13
2017-08-15T22:12:52.466Z,15.20
2017-08-15T22:15:19.401Z,13.47
2017-08-15T22:17:46.393Z,14.50
2017-08-15T22:20:13.318Z,16.00
2017-08-15T22:22:40.256Z,15.93
2017-08-15T22:25:07.185Z,16.00
2017-08-15T22:27:34.164Z,14.77
2017-08-15T22:30:01.122Z,14.23
2017-08-15T22:32:27.993Z,15.80
2017-08-15T22:34:54.987Z,15.00
2017-08-15T22:37:21.992Z,15.40
2017-08-15T22:39:48.952Z,13.40
2017-08-15T22:42:16.762Z,15.13
2017-08-15T22:44:43.634Z,13.97
2017-08-15T22:47:10.497Z,12.87
2017-08-15T22:49:37.453Z,16.33
2017-08-15T22:52:04.397Z,18.13
2017-08-15T22:54:31.288Z,14.90
2017-08-15T22:56:58.205Z,15.63
2017-08-15T22:59:25.619Z,14.47
2017-08-15T23:01:52.591Z,14.67
2017-08-15T23:04:19.546Z,16.90
2017-08-15T23:06:46.476Z,15.20
2017-08-15T23:09:13.439Z,14.13
2017-08-15T23:11:40.702Z,14.93
2017-08-15T23:14:07.583Z,15.37
2017-08-15T23:16:34.535Z,13.90
2017-08-15T23:19:01.607Z,14.30
2017-08-15T23:21:28.973Z,15.90
2017-08-15T23:23:57.323Z,14.83
2017-08-15T23:26:24.365Z,14.83
2017-08-15T23:28:51.367Z,13.80
2017-08-15T23:31:18.434Z,13.87
2017-08-15T23:33:45.782Z,14.30
2017-08-15T23:36:13.517Z,14.50
2017-08-15T23:38:40.485Z,13.90
2017-08-15T23:41:07.518Z,14.30
2017-08-15T23:43:35.128Z,14.03
2017-08-15T23:46:02.717Z,14.20
2017-08-15T23:48:29.740Z,14.60
2017-08-15T23:50:57.072Z,15.47
2017-08-15T23:53:25.471Z,13.67
2017-08-15T23:55:52.399Z,14.50
2017-08-15T23:58:19.316Z,14.47
